sensor_id;sensor_type;location;lat;lon;timestamp;pressure;altitude;pressure_sealevel;temperature;humidity
14232;BME280;7200;52.194;9.900;2023-07-29T00:02:06;99403.66;;;22.89;100.00
14232;BME280;7200;52.194;9.900;2023-07-29T00:04:32;99408.50;;;22.78;100.00
14232;BME280;7200;52.194;9.900;2023-07-29T00:06:57;99412.78;;;22.62;100.00
14232;BME280;7200;52.194;9.900;2023-07-29T00:09:22;99412.94;;;22.61;100.00
14232;BME280;7200;52.194;9.900;2023-07-29T00:11:48;99417.34;;;22.70;100.00
14232;BME280;7200;52.194;9.900;2023-07-29T00:14:13;99426.97;;;22.54;100.00
14232;BME280;7200;52.194;9.900;2023-07-29T00:16:38;99417.59;;;22.32;100.00
14232;BME280;7200;52.194;9.900;2023-07-29T00:19:03;99424.38;;;22.01;100.00
14232;BME280;7200;52.194;9.900;2023-07-29T00:21:29;99420.66;;;22.02;100.00
14232;BME280;7200;52.194;9.900;2023-07-29T00:23:54;99417.75;;;22.13;100.00
14232;BME280;7200;52.194;9.900;2023-07-29T00:26:22;99411.91;;;22.00;100.00
14232;BME280;7200;52.194;9.900;2023-07-29T00:28:48;99415.28;;;22.02;100.00
14232;BME280;7200;52.194;9.900;2023-07-29T00:31:13;99412.91;;;22.16;100.00
14232;BME280;7200;52.194;9.900;2023-07-29T00:33:38;99414.28;;;22.21;100.00
14232;BME280;7200;52.194;9.900;2023-07-29T00:36:04;99400.19;;;22.01;100.00
14232;BME280;7200;52.194;9.900;2023-07-29T00:38:29;99404.13;;;21.70;100.00
14232;BME280;7200;52.194;9.900;2023-07-29T00:40:56;99407.50;;;21.72;100.00
14232;BME280;7200;52.194;9.900;2023-07-29T00:43:22;99406.00;;;20.77;100.00
14232;BME280;7200;52.194;9.900;2023-07-29T00:45:47;99395.72;;;20.72;100.00
14232;BME280;7200;52.194;9.900;2023-07-29T00:48:12;99393.03;;;20.72;100.00
14232;BME280;7200;52.194;9.900;2023-07-29T00:50:38;99389.25;;;20.55;100.00
14232;BME280;7200;52.194;9.900;2023-07-29T00:53:03;99391.09;;;21.02;100.00
14232;BME280;7200;52.194;9.900;2023-07-29T00:55:29;99390.81;;;20.95;100.00
14232;BME280;7200;52.194;9.900;2023-07-29T00:57:54;99389.84;;;20.96;100.00
14232;BME280;7200;52.194;9.900;2023-07-29T01:00:21;99387.06;;;21.34;100.00
14232;BME280;7200;52.194;9.900;2023-07-29T01:02:46;99385.91;;;21.46;100.00
14232;BME280;7200;52.194;9.900;2023-07-29T01:05:13;99389.44;;;21.47;100.00
14232;BME280;7200;52.194;9.900;2023-07-29T01:10:46;99380.75;;;21.53;100.00
14232;BME280;7200;52.194;9.900;2023-07-29T01:13:19;99380.94;;;21.51;100.00
14232;BME280;7200;52.194;9.900;2023-07-29T01:15:53;99380.94;;;21.51;100.00
14232;BME280;7200;52.194;9.900;2023-07-29T01:18:31;99377.78;;;21.56;100.00
14232;BME280;7200;52.194;9.900;2023-07-29T01:21:03;99381.00;;;21.60;100.00
14232;BME280;7200;52.194;9.900;2023-07-29T01:23:30;99383.38;;;21.45;100.00
14232;BME280;7200;52.194;9.900;2023-07-29T01:25:56;99384.66;;;21.41;100.00
14232;BME280;7200;52.194;9.900;2023-07-29T01:28:21;99375.03;;;21.48;100.00
14232;BME280;7200;52.194;9.900;2023-07-29T01:30:49;99366.16;;;21.37;100.00
14232;BME280;7200;52.194;9.900;2023-07-29T01:33:26;99368.38;;;21.52;100.00
14232;BME280;7200;52.194;9.900;2023-07-29T01:35:55;99361.06;;;21.44;100.00
14232;BME280;7200;52.194;9.900;2023-07-29T01:38:29;99361.81;;;21.36;100.00
14232;BME280;7200;52.194;9.900;2023-07-29T01:40:57;99361.81;;;21.36;100.00
14232;BME280;7200;52.194;9.900;2023-07-29T01:43:26;99368.97;;;21.36;100.00
14232;BME280;7200;52.194;9.900;2023-07-29T01:45:52;99365.88;;;21.41;100.00
14232;BME280;7200;52.194;9.900;2023-07-29T01:48:17;99368.63;;;21.31;100.00
14232;BME280;7200;52.194;9.900;2023-07-29T01:50:43;99367.38;;;21.43;100.00
14232;BME280;7200;52.194;9.900;2023-07-29T01:53:08;99358.44;;;21.34;100.00
14232;BME280;7200;52.194;9.900;2023-07-29T01:55:33;99354.28;;;21.40;100.00
14232;BME280;7200;52.194;9.900;2023-07-29T01:57:58;99349.91;;;21.39;100.00
14232;BME280;7200;52.194;9.900;2023-07-29T02:00:24;99349.91;;;21.39;100.00
14232;BME280;7200;52.194;9.900;2023-07-29T02:02:49;99347.81;;;21.15;100.00
14232;BME280;7200;52.194;9.900;2023-07-29T02:05:14;99363.19;;;21.41;100.00
14232;BME280;7200;52.194;9.900;2023-07-29T02:07:40;99351.91;;;21.37;100.00
14232;BME280;7200;52.194;9.900;2023-07-29T02:10:05;99349.63;;;21.42;100.00
14232;BME280;7200;52.194;9.900;2023-07-29T02:12:31;99346.78;;;21.44;100.00
14232;BME280;7200;52.194;9.900;2023-07-29T02:14:56;99348.06;;;21.49;100.00
14232;BME280;7200;52.194;9.900;2023-07-29T02:17:21;99334.16;;;21.54;100.00
14232;BME280;7200;52.194;9.900;2023-07-29T02:19:47;99335.53;;;21.58;100.00
14232;BME280;7200;52.194;9.900;2023-07-29T02:22:16;99336.91;;;21.62;100.00
14232;BME280;7200;52.194;9.900;2023-07-29T02:24:42;99330.03;;;21.60;100.00
14232;BME280;7200;52.194;9.900;2023-07-29T02:27:07;99332.22;;;21.64;100.00
14232;BME280;7200;52.194;9.900;2023-07-29T02:29:33;99337.97;;;21.69;100.00
14232;BME280;7200;52.194;9.900;2023-07-29T02:31:59;99340.38;;;21.72;100.00
14232;BME280;7200;52.194;9.900;2023-07-29T02:34:24;99326.38;;;20.87;100.00
14232;BME280;7200;52.194;9.900;2023-07-29T02:36:50;99317.94;;;21.10;100.00
14232;BME280;7200;52.194;9.900;2023-07-29T02:39:15;99309.94;;;20.72;100.00
14232;BME280;7200;52.194;9.900;2023-07-29T02:41:40;99319.44;;;20.57;100.00
14232;BME280;7200;52.194;9.900;2023-07-29T02:44:05;99324.81;;;20.47;100.00
14232;BME280;7200;52.194;9.900;2023-07-29T02:46:31;99333.22;;;20.72;100.00
14232;BME280;7200;52.194;9.900;2023-07-29T02:48:56;99353.97;;;20.97;100.00
14232;BME280;7200;52.194;9.900;2023-07-29T02:51:22;99354.75;;;21.08;100.00
14232;BME280;7200;52.194;9.900;2023-07-29T02:53:47;99358.31;;;21.08;100.00
14232;BME280;7200;52.194;9.900;2023-07-29T02:56:12;99353.47;;;21.57;100.00
14232;BME280;7200;52.194;9.900;2023-07-29T02:58:38;99350.72;;;21.67;100.00
14232;BME280;7200;52.194;9.900;2023-07-29T03:01:05;99355.09;;;21.68;100.00
14232;BME280;7200;52.194;9.900;2023-07-29T03:03:31;99348.09;;;21.75;100.00
14232;BME280;7200;52.194;9.900;2023-07-29T03:06:07;99347.13;;;21.76;100.00
14232;BME280;7200;52.194;9.900;2023-07-29T03:08:33;99342.53;;;21.23;100.00
14232;BME280;7200;52.194;9.900;2023-07-29T03:10:58;99344.13;;;21.62;100.00
14232;BME280;7200;52.194;9.900;2023-07-29T03:13:24;99343.72;;;21.56;100.00
14232;BME280;7200;52.194;9.900;2023-07-29T03:15:49;99346.28;;;21.76;100.00
14232;BME280;7200;52.194;9.900;2023-07-29T03:18:15;99343.03;;;21.90;100.00
14232;BME280;7200;52.194;9.900;2023-07-29T03:20:41;99334.69;;;21.75;100.00
14232;BME280;7200;52.194;9.900;2023-07-29T03:23:06;99331.69;;;21.96;100.00
14232;BME280;7200;52.194;9.900;2023-07-29T03:25:32;99325.53;;;22.04;100.00
14232;BME280;7200;52.194;9.900;2023-07-29T03:27:58;99322.31;;;21.83;100.00
14232;BME280;7200;52.194;9.900;2023-07-29T03:30:24;99323.88;;;21.85;100.00
14232;BME280;7200;52.194;9.900;2023-07-29T03:32:49;99318.06;;;21.98;100.00
14232;BME280;7200;52.194;9.900;2023-07-29T03:35:14;99323.00;;;22.03;100.00
14232;BME280;7200;52.194;9.900;2023-07-29T03:37:40;99329.00;;;21.96;100.00
14232;BME280;7200;52.194;9.900;2023-07-29T03:40:07;99328.75;;;22.08;100.00
14232;BME280;7200;52.194;9.900;2023-07-29T03:42:32;99331.41;;;22.26;100.00
14232;BME280;7200;52.194;9.900;2023-07-29T03:44:58;99341.91;;;22.19;100.00
14232;BME280;7200;52.194;9.900;2023-07-29T03:47:23;99336.84;;;22.16;100.00
14232;BME280;7200;52.194;9.900;2023-07-29T03:49:48;99339.84;;;22.31;100.00
14232;BME280;7200;52.194;9.900;2023-07-29T03:52:14;99332.00;;;22.20;100.00
14232;BME280;7200;52.194;9.900;2023-07-29T03:54:39;99325.38;;;21.88;100.00
14232;BME280;7200;52.194;9.900;2023-07-29T03:57:04;99319.75;;;21.55;100.00
14232;BME280;7200;52.194;9.900;2023-07-29T03:59:30;99318.41;;;21.41;100.00
14232;BME280;7200;52.194;9.900;2023-07-29T04:01:55;99322.31;;;21.29;100.00
14232;BME280;7200;52.194;9.900;2023-07-29T04:04:20;99324.41;;;21.53;100.00
14232;BME280;7200;52.194;9.900;2023-07-29T04:06:46;99317.88;;;21.73;100.00
14232;BME280;7200;52.194;9.900;2023-07-29T04:09:11;99317.19;;;21.71;100.00
14232;BME280;7200;52.194;9.900;2023-07-29T04:11:36;99313.47;;;21.90;100.00
14232;BME280;7200;52.194;9.900;2023-07-29T04:14:01;99321.09;;;21.95;100.00
14232;BME280;7200;52.194;9.900;2023-07-29T04:16:27;99319.13;;;22.05;100.00
14232;BME280;7200;52.194;9.900;2023-07-29T04:18:53;99313.56;;;21.99;100.00
14232;BME280;7200;52.194;9.900;2023-07-29T04:21:18;99303.97;;;21.96;100.00
14232;BME280;7200;52.194;9.900;2023-07-29T04:23:44;99303.69;;;22.07;100.00
14232;BME280;7200;52.194;9.900;2023-07-29T04:26:09;99296.09;;;21.94;100.00
14232;BME280;7200;52.194;9.900;2023-07-29T04:28:34;99306.38;;;22.07;100.00
14232;BME280;7200;52.194;9.900;2023-07-29T04:31:00;99301.28;;;21.96;100.00
14232;BME280;7200;52.194;9.900;2023-07-29T04:33:25;99300.06;;;21.90;100.00
14232;BME280;7200;52.194;9.900;2023-07-29T04:35:50;99301.16;;;21.80;100.00
14232;BME280;7200;52.194;9.900;2023-07-29T04:38:15;99307.50;;;21.96;100.00
14232;BME280;7200;52.194;9.900;2023-07-29T04:40:41;99310.09;;;22.06;100.00
14232;BME280;7200;52.194;9.900;2023-07-29T04:43:06;99297.72;;;22.13;100.00
14232;BME280;7200;52.194;9.900;2023-07-29T04:45:31;99302.97;;;22.23;100.00
14232;BME280;7200;52.194;9.900;2023-07-29T04:47:58;99298.31;;;22.25;100.00
14232;BME280;7200;52.194;9.900;2023-07-29T04:50:23;99295.66;;;22.33;100.00
14232;BME280;7200;52.194;9.900;2023-07-29T04:52:48;99306.78;;;22.39;100.00
14232;BME280;7200;52.194;9.900;2023-07-29T04:55:14;99308.66;;;22.38;100.00
14232;BME280;7200;52.194;9.900;2023-07-29T04:57:39;99299.56;;;22.39;100.00
14232;BME280;7200;52.194;9.900;2023-07-29T05:00:05;99296.03;;;22.39;100.00
14232;BME280;7200;52.194;9.900;2023-07-29T05:04:56;99290.53;;;22.48;100.00
14232;BME280;7200;52.194;9.900;2023-07-29T05:07:21;99287.38;;;22.53;100.00
14232;BME280;7200;52.194;9.900;2023-07-29T05:09:47;99291.63;;;22.64;100.00
14232;BME280;7200;52.194;9.900;2023-07-29T05:12:13;99286.81;;;22.76;100.00
14232;BME280;7200;52.194;9.900;2023-07-29T05:14:38;99283.91;;;22.61;100.00
14232;BME280;7200;52.194;9.900;2023-07-29T05:17:03;99283.56;;;22.64;100.00
14232;BME280;7200;52.194;9.900;2023-07-29T05:19:29;99283.16;;;22.50;100.00
14232;BME280;7200;52.194;9.900;2023-07-29T05:21:55;99285.00;;;22.50;100.00
14232;BME280;7200;52.194;9.900;2023-07-29T05:24:21;99286.44;;;22.62;100.00
14232;BME280;7200;52.194;9.900;2023-07-29T05:26:46;99286.34;;;22.46;100.00
14232;BME280;7200;52.194;9.900;2023-07-29T05:29:11;99283.00;;;22.52;100.00
14232;BME280;7200;52.194;9.900;2023-07-29T05:31:36;99278.06;;;22.39;100.00
14232;BME280;7200;52.194;9.900;2023-07-29T05:34:02;99289.88;;;22.54;100.00
14232;BME280;7200;52.194;9.900;2023-07-29T05:36:27;99284.22;;;22.66;100.00
14232;BME280;7200;52.194;9.900;2023-07-29T05:38:52;99287.78;;;22.66;100.00
14232;BME280;7200;52.194;9.900;2023-07-29T05:41:17;99288.78;;;22.65;100.00
14232;BME280;7200;52.194;9.900;2023-07-29T05:43:43;99296.31;;;22.62;100.00
14232;BME280;7200;52.194;9.900;2023-07-29T05:46:09;99303.56;;;22.69;100.00
14232;BME280;7200;52.194;9.900;2023-07-29T05:48:34;99303.78;;;22.76;100.00
14232;BME280;7200;52.194;9.900;2023-07-29T05:51:00;99294.00;;;22.67;100.00
14232;BME280;7200;52.194;9.900;2023-07-29T05:53:25;99300.06;;;22.77;100.00
14232;BME280;7200;52.194;9.900;2023-07-29T05:55:50;99305.28;;;22.79;100.00
14232;BME280;7200;52.194;9.900;2023-07-29T05:58:15;99297.59;;;22.84;100.00
14232;BME280;7200;52.194;9.900;2023-07-29T06:00:41;99288.78;;;22.65;100.00
14232;BME280;7200;52.194;9.900;2023-07-29T06:03:06;99284.03;;;22.59;100.00
14232;BME280;7200;52.194;9.900;2023-07-29T06:05:31;99283.50;;;22.47;100.00
14232;BME280;7200;52.194;9.900;2023-07-29T06:07:57;99279.47;;;21.99;100.00
14232;BME280;7200;52.194;9.900;2023-07-29T06:10:22;99283.84;;;21.74;100.00
14232;BME280;7200;52.194;9.900;2023-07-29T06:12:47;99287.00;;;21.51;100.00
14232;BME280;7200;52.194;9.900;2023-07-29T06:15:13;99301.88;;;21.64;100.00
14232;BME280;7200;52.194;9.900;2023-07-29T06:17:39;99303.31;;;21.76;100.00
14232;BME280;7200;52.194;9.900;2023-07-29T06:20:05;99315.09;;;22.01;100.00
14232;BME280;7200;52.194;9.900;2023-07-29T06:22:31;99310.41;;;22.03;100.00
14232;BME280;7200;52.194;9.900;2023-07-29T06:24:56;99296.72;;;21.70;100.00
14232;BME280;7200;52.194;9.900;2023-07-29T06:27:21;99302.00;;;21.80;100.00
14232;BME280;7200;52.194;9.900;2023-07-29T06:29:47;99315.38;;;21.72;100.00
14232;BME280;7200;52.194;9.900;2023-07-29T06:32:12;99327.53;;;22.02;100.00
14232;BME280;7200;52.194;9.900;2023-07-29T06:34:37;99333.13;;;22.35;100.00
14232;BME280;7200;52.194;9.900;2023-07-29T06:37:02;99338.25;;;22.46;100.00
14232;BME280;7200;52.194;9.900;2023-07-29T06:39:28;99333.53;;;22.48;100.00
14232;BME280;7200;52.194;9.900;2023-07-29T06:41:53;99333.34;;;22.42;100.00
14232;BME280;7200;52.194;9.900;2023-07-29T06:44:18;99336.47;;;22.29;100.00
14232;BME280;7200;52.194;9.900;2023-07-29T06:46:44;99335.13;;;22.59;100.00
14232;BME280;7200;52.194;9.900;2023-07-29T06:49:09;99338.00;;;22.66;100.00
14232;BME280;7200;52.194;9.900;2023-07-29T06:51:34;99326.56;;;22.64;100.00
14232;BME280;7200;52.194;9.900;2023-07-29T06:54:01;99336.19;;;22.66;100.00
14232;BME280;7200;52.194;9.900;2023-07-29T06:56:27;99341.75;;;22.47;100.00
14232;BME280;7200;52.194;9.900;2023-07-29T06:58:52;99335.16;;;22.15;100.00
14232;BME280;7200;52.194;9.900;2023-07-29T07:01:17;99351.13;;;22.16;100.00
14232;BME280;7200;52.194;9.900;2023-07-29T07:03:43;99346.94;;;22.22;100.00
14232;BME280;7200;52.194;9.900;2023-07-29T07:06:08;99347.59;;;22.34;100.00
14232;BME280;7200;52.194;9.900;2023-07-29T07:08:33;99346.19;;;22.30;100.00
14232;BME280;7200;52.194;9.900;2023-07-29T07:10:59;99347.75;;;22.32;100.00
14232;BME280;7200;52.194;9.900;2023-07-29T07:13:24;99350.69;;;22.03;100.00
14232;BME280;7200;52.194;9.900;2023-07-29T07:15:49;99350.66;;;22.21;100.00
14232;BME280;7200;52.194;9.900;2023-07-29T07:18:15;99357.31;;;21.91;100.00
14232;BME280;7200;52.194;9.900;2023-07-29T07:20:40;99358.22;;;22.00;100.00
14232;BME280;7200;52.194;9.900;2023-07-29T07:23:05;99362.00;;;22.33;100.00
14232;BME280;7200;52.194;9.900;2023-07-29T07:25:33;99351.84;;;22.01;100.00
14232;BME280;7200;52.194;9.900;2023-07-29T07:27:59;99347.03;;;21.86;100.00
14232;BME280;7200;52.194;9.900;2023-07-29T07:30:24;99353.41;;;21.85;100.00
14232;BME280;7200;52.194;9.900;2023-07-29T07:32:50;99364.94;;;22.04;100.00
14232;BME280;7200;52.194;9.900;2023-07-29T07:35:15;99354.41;;;21.84;100.00
14232;BME280;7200;52.194;9.900;2023-07-29T07:37:41;99360.53;;;21.94;100.00
14232;BME280;7200;52.194;9.900;2023-07-29T07:40:06;99363.94;;;22.23;100.00
14232;BME280;7200;52.194;9.900;2023-07-29T07:42:32;99367.69;;;22.30;100.00
14232;BME280;7200;52.194;9.900;2023-07-29T07:44:57;99367.53;;;22.58;100.00
14232;BME280;7200;52.194;9.900;2023-07-29T07:47:23;99360.09;;;22.07;100.00
14232;BME280;7200;52.194;9.900;2023-07-29T07:49:48;99365.88;;;22.12;100.00
14232;BME280;7200;52.194;9.900;2023-07-29T07:52:15;99361.88;;;22.34;100.00
14232;BME280;7200;52.194;9.900;2023-07-29T07:54:40;99354.38;;;22.46;100.00
14232;BME280;7200;52.194;9.900;2023-07-29T07:57:06;99352.25;;;22.92;100.00
14232;BME280;7200;52.194;9.900;2023-07-29T07:59:31;99339.94;;;22.82;100.00
14232;BME280;7200;52.194;9.900;2023-07-29T08:01:56;99336.75;;;22.52;100.00
14232;BME280;7200;52.194;9.900;2023-07-29T08:04:21;99329.34;;;22.80;100.00
14232;BME280;7200;52.194;9.900;2023-07-29T08:06:47;99342.19;;;23.45;100.00
14232;BME280;7200;52.194;9.900;2023-07-29T08:09:12;99334.59;;;23.41;100.00
14232;BME280;7200;52.194;9.900;2023-07-29T08:11:37;99313.09;;;23.49;100.00
14232;BME280;7200;52.194;9.900;2023-07-29T08:14:03;99296.75;;;23.67;100.00
14232;BME280;7200;52.194;9.900;2023-07-29T08:16:28;99295.44;;;23.79;100.00
14232;BME280;7200;52.194;9.900;2023-07-29T08:18:53;99290.69;;;23.40;100.00
14232;BME280;7200;52.194;9.900;2023-07-29T08:21:18;99283.06;;;23.11;100.00
14232;BME280;7200;52.194;9.900;2023-07-29T08:23:44;99290.34;;;23.35;100.00
14232;BME280;7200;52.194;9.900;2023-07-29T08:26:09;99284.00;;;22.93;100.00
14232;BME280;7200;52.194;9.900;2023-07-29T08:28:36;99291.38;;;22.83;100.00
14232;BME280;7200;52.194;9.900;2023-07-29T08:31:02;99282.88;;;22.62;100.00
14232;BME280;7200;52.194;9.900;2023-07-29T08:33:28;99282.69;;;22.55;100.00
14232;BME280;7200;52.194;9.900;2023-07-29T08:35:53;99288.50;;;22.42;100.00
14232;BME280;7200;52.194;9.900;2023-07-29T08:38:20;99304.59;;;22.77;100.00
14232;BME280;7200;52.194;9.900;2023-07-29T08:41:19;99316.25;;;22.85;100.00
14232;BME280;7200;52.194;9.900;2023-07-29T08:43:52;99322.22;;;22.63;100.00
14232;BME280;7200;52.194;9.900;2023-07-29T08:46:21;99314.00;;;22.64;100.00
14232;BME280;7200;52.194;9.900;2023-07-29T08:48:46;99315.81;;;22.64;100.00
14232;BME280;7200;52.194;9.900;2023-07-29T08:51:12;99316.97;;;22.53;100.00
14232;BME280;7200;52.194;9.900;2023-07-29T08:53:38;99325.97;;;22.78;100.00
14232;BME280;7200;52.194;9.900;2023-07-29T08:56:04;99324.19;;;22.95;100.00
14232;BME280;7200;52.194;9.900;2023-07-29T08:58:31;99323.66;;;22.83;100.00
14232;BME280;7200;52.194;9.900;2023-07-29T09:00:56;99326.03;;;22.60;100.00
14232;BME280;7200;52.194;9.900;2023-07-29T09:03:22;99331.94;;;22.64;100.00
14232;BME280;7200;52.194;9.900;2023-07-29T09:05:47;99319.53;;;22.71;100.00
14232;BME280;7200;52.194;9.900;2023-07-29T09:08:13;99319.75;;;22.78;100.00
14232;BME280;7200;52.194;9.900;2023-07-29T09:10:39;99315.63;;;22.57;100.00
14232;BME280;7200;52.194;9.900;2023-07-29T09:13:04;99310.44;;;22.64;100.00
14232;BME280;7200;52.194;9.900;2023-07-29T09:15:33;99306.81;;;22.47;100.00
14232;BME280;7200;52.194;9.900;2023-07-29T09:17:59;99311.63;;;22.69;100.00
14232;BME280;7200;52.194;9.900;2023-07-29T09:20:33;99311.59;;;22.61;100.00
14232;BME280;7200;52.194;9.900;2023-07-29T09:22:59;99310.78;;;22.61;100.00
14232;BME280;7200;52.194;9.900;2023-07-29T09:25:28;99299.38;;;22.67;100.00
14232;BME280;7200;52.194;9.900;2023-07-29T09:28:01;99305.09;;;22.72;100.00
14232;BME280;7200;52.194;9.900;2023-07-29T09:30:27;99310.88;;;22.93;100.00
14232;BME280;7200;52.194;9.900;2023-07-29T09:32:58;99309.78;;;23.04;100.00
14232;BME280;7200;52.194;9.900;2023-07-29T09:35:27;99313.56;;;23.44;100.00
14232;BME280;7200;52.194;9.900;2023-07-29T09:37:53;99295.75;;;23.68;100.00
14232;BME280;7200;52.194;9.900;2023-07-29T09:40:19;99289.69;;;23.66;100.00
14232;BME280;7200;52.194;9.900;2023-07-29T09:42:52;99280.28;;;23.95;100.00
14232;BME280;7200;52.194;9.900;2023-07-29T09:45:26;99286.34;;;23.88;100.00
14232;BME280;7200;52.194;9.900;2023-07-29T09:47:52;99298.28;;;23.86;100.00
14232;BME280;7200;52.194;9.900;2023-07-29T09:50:18;99284.25;;;24.23;100.00
14232;BME280;7200;52.194;9.900;2023-07-29T09:52:44;99275.25;;;24.47;100.00
14232;BME280;7200;52.194;9.900;2023-07-29T09:55:12;99263.44;;;23.84;100.00
14232;BME280;7200;52.194;9.900;2023-07-29T09:57:39;99259.53;;;24.03;100.00
14232;BME280;7200;52.194;9.900;2023-07-29T10:00:05;99252.25;;;24.20;100.00
14232;BME280;7200;52.194;9.900;2023-07-29T10:02:39;99255.00;;;24.04;100.00
14232;BME280;7200;52.194;9.900;2023-07-29T10:05:06;99255.84;;;24.04;100.00
14232;BME280;7200;52.194;9.900;2023-07-29T10:07:33;99257.56;;;23.89;100.00
14232;BME280;7200;52.194;9.900;2023-07-29T10:09:59;99256.09;;;24.34;100.00
14232;BME280;7200;52.194;9.900;2023-07-29T10:12:24;99248.13;;;24.49;100.00
14232;BME280;7200;52.194;9.900;2023-07-29T10:14:50;99239.75;;;25.06;100.00
14232;BME280;7200;52.194;9.900;2023-07-29T10:17:16;99245.88;;;25.00;100.00
14232;BME280;7200;52.194;9.900;2023-07-29T10:19:43;99236.06;;;24.28;100.00
14232;BME280;7200;52.194;9.900;2023-07-29T10:22:10;99248.38;;;24.71;100.00
14232;BME280;7200;52.194;9.900;2023-07-29T10:24:37;99255.34;;;25.19;100.00
14232;BME280;7200;52.194;9.900;2023-07-29T10:27:06;99244.72;;;25.26;100.00
14232;BME280;7200;52.194;9.900;2023-07-29T10:29:38;99246.31;;;25.58;100.00
14232;BME280;7200;52.194;9.900;2023-07-29T10:32:04;99246.66;;;24.78;100.00
14232;BME280;7200;52.194;9.900;2023-07-29T10:34:31;99244.38;;;25.21;100.00
14232;BME280;7200;52.194;9.900;2023-07-29T10:36:59;99256.69;;;25.47;100.00
14232;BME280;7200;52.194;9.900;2023-07-29T10:39:25;99265.00;;;24.91;100.00
14232;BME280;7200;52.194;9.900;2023-07-29T10:47:13;99276.94;;;24.96;100.00
14232;BME280;7200;52.194;9.900;2023-07-29T10:50:16;99272.97;;;24.20;100.00
14232;BME280;7200;52.194;9.900;2023-07-29T10:54:59;99294.97;;;24.56;100.00
14232;BME280;7200;52.194;9.900;2023-07-29T10:57:38;99280.31;;;24.42;100.00
14232;BME280;7200;52.194;9.900;2023-07-29T11:00:05;99291.28;;;24.49;100.00
14232;BME280;7200;52.194;9.900;2023-07-29T11:02:34;99286.84;;;25.04;100.00
14232;BME280;7200;52.194;9.900;2023-07-29T11:05:07;99282.56;;;24.78;100.00
14232;BME280;7200;52.194;9.900;2023-07-29T11:07:44;99299.25;;;24.82;100.00
14232;BME280;7200;52.194;9.900;2023-07-29T11:10:11;99301.47;;;25.10;100.00
14232;BME280;7200;52.194;9.900;2023-07-29T11:12:47;99300.44;;;24.79;100.00
14232;BME280;7200;52.194;9.900;2023-07-29T11:15:23;99312.00;;;24.57;100.00
14232;BME280;7200;52.194;9.900;2023-07-29T11:17:51;99313.53;;;24.35;100.00
14232;BME280;7200;52.194;9.900;2023-07-29T11:20:18;99311.72;;;24.27;100.00
14232;BME280;7200;52.194;9.900;2023-07-29T11:22:44;99312.53;;;24.36;100.00
14232;BME280;7200;52.194;9.900;2023-07-29T11:25:11;99307.41;;;24.65;100.00
14232;BME280;7200;52.194;9.900;2023-07-29T11:27:37;99311.16;;;24.48;100.00
14232;BME280;7200;52.194;9.900;2023-07-29T11:30:05;99305.03;;;24.71;100.00
14232;BME280;7200;52.194;9.900;2023-07-29T11:32:31;99307.28;;;24.98;100.00
14232;BME280;7200;52.194;9.900;2023-07-29T11:35:04;99309.25;;;25.04;100.00
14232;BME280;7200;52.194;9.900;2023-07-29T11:37:29;99311.88;;;25.21;100.00
14232;BME280;7200;52.194;9.900;2023-07-29T11:39:55;99335.66;;;25.25;100.00
14232;BME280;7200;52.194;9.900;2023-07-29T11:42:20;99350.03;;;25.49;100.00
14232;BME280;7200;52.194;9.900;2023-07-29T11:44:45;99346.19;;;25.43;100.00
14232;BME280;7200;52.194;9.900;2023-07-29T11:47:12;99357.22;;;25.80;100.00
14232;BME280;7200;52.194;9.900;2023-07-29T11:49:41;99377.28;;;25.62;100.00
14232;BME280;7200;52.194;9.900;2023-07-29T11:52:07;99366.72;;;25.53;100.00
14232;BME280;7200;52.194;9.900;2023-07-29T11:54:35;99371.00;;;25.39;100.00
14232;BME280;7200;52.194;9.900;2023-07-29T11:57:00;99380.94;;;25.70;100.00
14232;BME280;7200;52.194;9.900;2023-07-29T11:59:27;99372.94;;;25.53;100.00
14232;BME280;7200;52.194;9.900;2023-07-29T12:01:53;99377.44;;;25.38;100.00
14232;BME280;7200;52.194;9.900;2023-07-29T12:04:18;99369.06;;;25.16;100.00
14232;BME280;7200;52.194;9.900;2023-07-29T12:06:44;99386.50;;;25.45;100.00
14232;BME280;7200;52.194;9.900;2023-07-29T12:09:09;99381.00;;;25.22;100.00
14232;BME280;7200;52.194;9.900;2023-07-29T12:11:35;99388.16;;;25.23;100.00
14232;BME280;7200;52.194;9.900;2023-07-29T12:14:00;99392.41;;;25.49;100.00
14232;BME280;7200;52.194;9.900;2023-07-29T12:16:26;99387.69;;;25.42;100.00
14232;BME280;7200;52.194;9.900;2023-07-29T12:18:51;99386.91;;;25.34;100.00
14232;BME280;7200;52.194;9.900;2023-07-29T12:21:18;99398.97;;;25.46;100.00
14232;BME280;7200;52.194;9.900;2023-07-29T12:23:44;99393.97;;;25.35;100.00
14232;BME280;7200;52.194;9.900;2023-07-29T12:26:09;99380.00;;;25.31;100.00
14232;BME280;7200;52.194;9.900;2023-07-29T12:28:34;99383.41;;;25.25;100.00
14232;BME280;7200;52.194;9.900;2023-07-29T12:30:59;99393.34;;;25.16;100.00
14232;BME280;7200;52.194;9.900;2023-07-29T12:33:33;99393.34;;;25.56;100.00
14232;BME280;7200;52.194;9.900;2023-07-29T12:36:02;99388.69;;;25.73;100.00
14232;BME280;7200;52.194;9.900;2023-07-29T12:38:31;99361.72;;;25.64;100.00
14232;BME280;7200;52.194;9.900;2023-07-29T12:40:56;99374.03;;;25.67;100.00
14232;BME280;7200;52.194;9.900;2023-07-29T12:43:25;99370.84;;;25.63;100.00
14232;BME280;7200;52.194;9.900;2023-07-29T12:45:50;99385.03;;;25.66;100.00
14232;BME280;7200;52.194;9.900;2023-07-29T12:48:16;99378.94;;;25.40;100.00
14232;BME280;7200;52.194;9.900;2023-07-29T12:50:41;99382.84;;;25.61;100.00
14232;BME280;7200;52.194;9.900;2023-07-29T12:53:07;99383.09;;;25.74;100.00
14232;BME280;7200;52.194;9.900;2023-07-29T12:55:34;99366.34;;;25.56;100.00
14232;BME280;7200;52.194;9.900;2023-07-29T12:57:59;99360.56;;;25.36;100.00
14232;BME280;7200;52.194;9.900;2023-07-29T13:00:26;99366.66;;;25.30;100.00
14232;BME280;7200;52.194;9.900;2023-07-29T13:02:51;99384.91;;;25.59;100.00
14232;BME280;7200;52.194;9.900;2023-07-29T13:05:16;99385.69;;;25.68;100.00
14232;BME280;7200;52.194;9.900;2023-07-29T13:07:43;99375.63;;;25.84;100.00
14232;BME280;7200;52.194;9.900;2023-07-29T13:10:12;99375.25;;;26.11;100.00